NRC weather

CLOSED NASA Crows Landing Airport
Crows Landing, California, United States

Public forecast

Using degrees Fahrenheit for public forecast. Weather courtesy of forecast.io.

Closest aviation weather report (METAR) to NASA Crows Landing Airport

Closest report is Modesto City Co-Harry Sham Field, 15.0 nm (27.8 km) NNE. Retrieved 2019/10/16 15:53 UTC (40 minutes ago):

KMOD 161553Z COR 13003KT 7SM CLR 11/07 A3000 RMK AO2 SLP158 T01060072

Closest aviation forecast (TAF) to NASA Crows Landing Airport

Closest forecast is Modesto City Co-Harry Sham Field, 15.0 nm (27.8 km) NNE. Retrieved 2019/10/16 12:43 UTC (4 hours ago):

TAF KMOD 161139Z 1612/1712 31004KT P6SM SCT250 FM170100 31006KT P6SM BKN250 FM171000 32005KT P6SM BKN100